createdAt,value
2022-10-30T00:04:41.801Z,8.67
2022-10-30T00:15:43.865Z,8.86
2022-10-30T00:26:22.440Z,8.86
2022-10-30T00:37:23.180Z,9.06
2022-10-30T00:48:22.991Z,9.25
2022-10-30T00:59:02.955Z,9.35
2022-10-30T01:10:00.700Z,9.35
2022-10-30T01:20:48.325Z,9.35
2022-10-30T01:31:28.404Z,9.25
2022-10-30T01:42:21.337Z,9.35
2022-10-30T01:53:04.128Z,9.25
2022-10-30T02:04:08.105Z,9.16
2022-10-30T02:15:11.559Z,8.96
2022-10-30T02:26:14.662Z,8.86
2022-10-30T02:37:19.085Z,8.67
2022-10-30T02:48:22.230Z,8.67
2022-10-30T02:59:22.687Z,8.57
2022-10-30T03:10:24.741Z,8.47
2022-10-30T03:21:26.093Z,8.28
2022-10-30T03:32:28.582Z,8.47
2022-10-30T03:43:33.876Z,8.28
2022-10-30T03:54:35.314Z,8.18
2022-10-30T04:05:38.664Z,8.18
2022-10-30T04:16:38.292Z,8.18
2022-10-30T04:27:22.244Z,7.98
2022-10-30T04:38:29.435Z,8.08
2022-10-30T04:49:15.117Z,7.89
2022-10-30T05:00:25.466Z,7.88
2022-10-30T05:11:32.764Z,7.89
2022-10-30T05:22:44.695Z,7.79
2022-10-30T05:33:51.896Z,7.89
2022-10-30T05:45:05.461Z,7.89
2022-10-30T05:56:09.793Z,7.89
2022-10-30T06:07:10.767Z,7.98
2022-10-30T06:18:11.696Z,8.08
2022-10-30T06:29:11.057Z,8.37
2022-10-30T06:40:14.066Z,8.77
2022-10-30T06:51:14.315Z,9.25
2022-10-30T07:02:12.849Z,9.65
2022-10-30T07:13:08.547Z,10.14
2022-10-30T07:24:12.183Z,10.62
2022-10-30T07:35:05.900Z,11.01
2022-10-30T07:46:00.760Z,11.60
2022-10-30T07:57:01.564Z,12.19
2022-10-30T08:07:57.581Z,12.87
2022-10-30T08:18:58.619Z,13.66
2022-10-30T08:29:49.244Z,14.24
2022-10-30T08:40:29.317Z,15.02
2022-10-30T08:51:07.621Z,15.61
2022-10-30T09:01:46.832Z,16.30
2022-10-30T09:12:40.941Z,16.98
2022-10-30T09:23:18.178Z,18.06
2022-10-30T09:34:08.086Z,18.94
2022-10-30T09:45:30.659Z,19.23
2022-10-30T09:56:09.736Z,19.72
2022-10-30T10:07:09.354Z,20.11
2022-10-30T10:18:10.310Z,20.50
2022-10-30T10:29:07.058Z,21.09
2022-10-30T10:40:07.644Z,21.77
2022-10-30T10:51:14.667Z,25.88
2022-10-30T11:02:12.959Z,27.44
2022-10-30T11:13:01.083Z,27.84
2022-10-30T11:23:59.022Z,29.60
2022-10-30T11:34:46.173Z,28.42
2022-10-30T11:45:44.151Z,30.08
2022-10-30T11:56:39.013Z,31.94
2022-10-30T12:07:35.193Z,32.14
2022-10-30T12:18:34.597Z,31.36
2022-10-30T12:30:02.786Z,31.06
2022-10-30T12:40:33.447Z,30.48
2022-10-30T12:51:30.693Z,31.65
2022-10-30T13:02:04.085Z,31.26
2022-10-30T13:13:03.700Z,30.87
2022-10-30T13:23:36.523Z,29.01
2022-10-30T13:34:28.789Z,26.17
2022-10-30T13:45:20.053Z,25.88
2022-10-30T13:56:16.761Z,24.22
2022-10-30T14:07:09.902Z,22.95
2022-10-30T14:17:59.558Z,22.36
2022-10-30T14:28:48.508Z,21.58
2022-10-30T14:39:21.782Z,21.29
2022-10-30T14:49:54.293Z,20.99
2022-10-30T15:00:52.073Z,19.72
2022-10-30T15:11:49.592Z,19.04
2022-10-30T15:22:48.629Z,18.15
2022-10-30T15:33:44.759Z,17.57
2022-10-30T15:44:38.688Z,16.59
2022-10-30T15:55:30.050Z,15.81
2022-10-30T16:06:04.877Z,15.22
2022-10-30T16:16:47.203Z,14.73
2022-10-30T16:27:21.343Z,14.44
2022-10-30T16:38:13.108Z,14.05
2022-10-30T16:48:48.605Z,13.66
2022-10-30T16:59:26.485Z,13.36
2022-10-30T17:10:19.773Z,13.17
2022-10-30T17:20:55.463Z,12.87
2022-10-30T17:31:49.434Z,12.78
2022-10-30T17:42:24.955Z,12.58
2022-10-30T17:53:08.872Z,12.29
2022-10-30T18:03:58.941Z,12.19
2022-10-30T18:14:44.669Z,11.99
2022-10-30T18:25:22.620Z,11.80
2022-10-30T18:36:05.835Z,11.50
2022-10-30T18:46:48.377Z,11.41
2022-10-30T18:57:35.439Z,11.21
2022-10-30T19:08:32.406Z,11.11
2022-10-30T19:19:31.961Z,10.92
2022-10-30T19:30:27.051Z,10.72
2022-10-30T19:41:27.800Z,10.82
2022-10-30T19:52:29.445Z,10.62
2022-10-30T20:03:29.314Z,10.43
2022-10-30T20:14:29.805Z,10.13
2022-10-30T20:25:31.924Z,10.23
2022-10-30T20:36:08.510Z,10.14
2022-10-30T20:47:08.762Z,9.94
2022-10-30T20:58:09.533Z,9.94
2022-10-30T21:09:09.431Z,9.74
2022-10-30T21:20:08.918Z,9.65
2022-10-30T21:30:45.942Z,9.55
2022-10-30T21:41:46.488Z,9.35
2022-10-30T21:52:24.389Z,9.35
2022-10-30T22:03:19.504Z,9.16
2022-10-30T22:14:20.476Z,9.06
2022-10-30T22:25:18.080Z,8.96
2022-10-30T22:36:19.673Z,8.86
2022-10-30T22:47:21.530Z,8.86
2022-10-30T22:58:16.130Z,8.77
2022-10-30T23:09:15.592Z,8.67
2022-10-30T23:20:11.630Z,8.67
2022-10-30T23:31:22.121Z,8.37
2022-10-30T23:42:19.732Z,8.57
2022-10-30T23:52:59.135Z,8.57
